sensor_id;sensor_type;location;lat;lon;timestamp;pressure;altitude;pressure_sealevel;temperature;humidity
39823;BME280;25499;53.958;10.970;2022-12-07T07:11:38;100872.00;;;0.73;100.00
39823;BME280;25499;53.958;10.970;2022-12-07T07:14:03;100869.78;;;0.60;100.00
39823;BME280;25499;53.958;10.970;2022-12-07T07:16:30;100875.84;;;0.62;100.00
39823;BME280;25499;53.958;10.970;2022-12-07T07:18:56;100871.94;;;0.72;100.00
39823;BME280;25499;53.958;10.970;2022-12-07T07:21:21;100878.06;;;0.76;100.00
39823;BME280;25499;53.958;10.970;2022-12-07T07:23:46;100877.94;;;0.72;100.00
39823;BME280;25499;53.958;10.970;2022-12-07T07:26:12;100886.00;;;0.82;100.00
39823;BME280;25499;53.958;10.970;2022-12-07T07:28:37;100887.00;;;0.64;100.00
39823;BME280;25499;53.958;10.970;2022-12-07T07:31:03;100892.72;;;0.80;100.00
39823;BME280;25499;53.958;10.970;2022-12-07T07:33:28;100890.34;;;0.84;100.00
39823;BME280;25499;53.958;10.970;2022-12-07T07:35:53;100894.72;;;0.87;100.00
39823;BME280;25499;53.958;10.970;2022-12-07T07:38:18;100891.97;;;0.82;100.00
39823;BME280;25499;53.958;10.970;2022-12-07T07:40:44;100889.69;;;0.90;100.00
39823;BME280;25499;53.958;10.970;2022-12-07T07:43:09;100887.66;;;0.81;100.00
39823;BME280;25499;53.958;10.970;2022-12-07T07:45:34;100885.59;;;0.93;100.00
39823;BME280;25499;53.958;10.970;2022-12-07T07:47:59;100892.84;;;0.83;100.00
39823;BME280;25499;53.958;10.970;2022-12-07T07:50:25;100890.88;;;0.76;100.00
39823;BME280;25499;53.958;10.970;2022-12-07T07:52:50;100901.66;;;0.89;100.00
39823;BME280;25499;53.958;10.970;2022-12-07T07:55:16;100896.59;;;0.91;100.00
39823;BME280;25499;53.958;10.970;2022-12-07T07:57:41;100902.34;;;1.08;100.00
39823;BME280;25499;53.958;10.970;2022-12-07T08:00:09;100889.66;;;0.88;100.00
39823;BME280;25499;53.958;10.970;2022-12-07T08:02:35;100897.88;;;1.02;100.00
39823;BME280;25499;53.958;10.970;2022-12-07T08:05:00;100889.88;;;0.95;100.00
39823;BME280;25499;53.958;10.970;2022-12-07T08:07:27;100891.81;;;0.78;100.00
39823;BME280;25499;53.958;10.970;2022-12-07T08:09:52;100899.63;;;0.81;100.00
39823;BME280;25499;53.958;10.970;2022-12-07T08:12:18;100897.56;;;0.95;100.00
39823;BME280;25499;53.958;10.970;2022-12-07T08:14:43;100879.22;;;0.84;100.00
39823;BME280;25499;53.958;10.970;2022-12-07T08:17:08;100882.59;;;0.83;100.00
39823;BME280;25499;53.958;10.970;2022-12-07T08:19:34;100874.63;;;0.75;100.00
39823;BME280;25499;53.958;10.970;2022-12-07T08:21:59;100885.16;;;0.83;100.00
39823;BME280;25499;53.958;10.970;2022-12-07T08:24:25;100874.97;;;0.84;100.00
39823;BME280;25499;53.958;10.970;2022-12-07T08:26:50;100880.34;;;0.90;100.00
39823;BME280;25499;53.958;10.970;2022-12-07T08:29:16;100881.72;;;1.05;100.00
39823;BME280;25499;53.958;10.970;2022-12-07T08:31:41;100886.69;;;1.00;100.00
39823;BME280;25499;53.958;10.970;2022-12-07T08:34:06;100886.00;;;1.04;100.00
39823;BME280;25499;53.958;10.970;2022-12-07T08:36:32;100887.69;;;1.04;100.00
39823;BME280;25499;53.958;10.970;2022-12-07T08:39:39;100895.13;;;1.20;100.00
39823;BME280;25499;53.958;10.970;2022-12-07T08:42:04;100885.59;;;1.40;100.00
39823;BME280;25499;53.958;10.970;2022-12-07T08:44:29;100891.22;;;1.54;100.00
39823;BME280;25499;53.958;10.970;2022-12-07T08:47:01;100881.19;;;1.60;100.00
39823;BME280;25499;53.958;10.970;2022-12-07T08:49:32;100895.03;;;1.65;100.00
39823;BME280;25499;53.958;10.970;2022-12-07T08:51:59;100888.56;;;1.51;100.00
39823;BME280;25499;53.958;10.970;2022-12-07T08:54:24;100888.50;;;1.49;100.00
39823;BME280;25499;53.958;10.970;2022-12-07T08:56:50;100896.63;;;1.62;100.00
39823;BME280;25499;53.958;10.970;2022-12-07T08:59:19;100900.59;;;1.54;100.00
39823;BME280;25499;53.958;10.970;2022-12-07T09:01:45;100899.19;;;1.62;100.00
39823;BME280;25499;53.958;10.970;2022-12-07T09:04:10;100901.97;;;1.68;100.00
39823;BME280;25499;53.958;10.970;2022-12-07T09:06:36;100903.94;;;1.75;100.00
39823;BME280;25499;53.958;10.970;2022-12-07T09:09:02;100901.81;;;1.63;100.00
39823;BME280;25499;53.958;10.970;2022-12-07T09:11:28;100900.66;;;1.79;100.00
39823;BME280;25499;53.958;10.970;2022-12-07T09:13:53;100901.50;;;1.80;100.00
39823;BME280;25499;53.958;10.970;2022-12-07T09:16:18;100899.50;;;1.71;100.00
39823;BME280;25499;53.958;10.970;2022-12-07T09:18:43;100894.53;;;1.76;100.00
39823;BME280;25499;53.958;10.970;2022-12-07T09:21:09;100893.06;;;1.82;100.00
39823;BME280;25499;53.958;10.970;2022-12-07T09:23:34;100900.47;;;1.73;100.00
39823;BME280;25499;53.958;10.970;2022-12-07T09:26:03;100887.31;;;1.90;100.00
39823;BME280;25499;53.958;10.970;2022-12-07T09:28:30;100887.72;;;1.76;100.00
39823;BME280;25499;53.958;10.970;2022-12-07T09:30:56;100893.97;;;1.84;100.00
39823;BME280;25499;53.958;10.970;2022-12-07T09:33:21;100890.66;;;1.87;100.00
39823;BME280;25499;53.958;10.970;2022-12-07T09:35:48;100896.38;;;1.80;100.00
39823;BME280;25499;53.958;10.970;2022-12-07T09:38:13;100895.13;;;1.93;100.00
39823;BME280;25499;53.958;10.970;2022-12-07T09:40:39;100898.41;;;1.89;100.00
39823;BME280;25499;53.958;10.970;2022-12-07T09:43:08;100889.66;;;2.08;100.00
39823;BME280;25499;53.958;10.970;2022-12-07T09:45:37;100882.56;;;2.00;100.00
39823;BME280;25499;53.958;10.970;2022-12-07T09:48:03;100885.06;;;1.99;100.00
39823;BME280;25499;53.958;10.970;2022-12-07T09:50:29;100880.75;;;1.98;100.00
39823;BME280;25499;53.958;10.970;2022-12-07T09:53:15;100878.34;;;2.28;100.00
39823;BME280;25499;53.958;10.970;2022-12-07T09:55:43;100875.22;;;2.11;100.00
39823;BME280;25499;53.958;10.970;2022-12-07T09:58:20;100883.38;;;2.25;100.00
39823;BME280;25499;53.958;10.970;2022-12-07T10:00:47;100877.16;;;2.18;100.00
39823;BME280;25499;53.958;10.970;2022-12-07T10:03:12;100872.00;;;2.18;100.00
39823;BME280;25499;53.958;10.970;2022-12-07T10:05:44;100870.34;;;2.20;100.00
39823;BME280;25499;53.958;10.970;2022-12-07T10:08:11;100869.94;;;2.34;100.00
39823;BME280;25499;53.958;10.970;2022-12-07T10:10:37;100865.22;;;2.20;100.00
39823;BME280;25499;53.958;10.970;2022-12-07T10:13:07;100862.13;;;2.31;100.00
39823;BME280;25499;53.958;10.970;2022-12-07T10:15:54;100864.00;;;2.35;100.00
39823;BME280;25499;53.958;10.970;2022-12-07T10:23:34;100867.47;;;2.37;100.00
39823;BME280;25499;53.958;10.970;2022-12-07T10:26:20;100875.34;;;2.41;99.88
39823;BME280;25499;53.958;10.970;2022-12-07T10:28:46;100856.88;;;2.26;98.88
39823;BME280;25499;53.958;10.970;2022-12-07T10:31:21;100857.16;;;2.35;98.21
39823;BME280;25499;53.958;10.970;2022-12-07T10:36:37;100858.03;;;2.10;96.66
39823;BME280;25499;53.958;10.970;2022-12-07T10:39:17;100861.09;;;2.26;96.36
39823;BME280;25499;53.958;10.970;2022-12-07T10:42:20;100856.91;;;2.28;96.43
39823;BME280;25499;53.958;10.970;2022-12-07T10:44:47;100867.47;;;2.37;96.55
39823;BME280;25499;53.958;10.970;2022-12-07T10:47:20;100853.34;;;2.24;95.92
39823;BME280;25499;53.958;10.970;2022-12-07T10:57:50;100862.00;;;2.53;95.91
39823;BME280;25499;53.958;10.970;2022-12-07T11:00:22;100853.94;;;2.42;94.22
39823;BME280;25499;53.958;10.970;2022-12-07T11:03:12;100852.31;;;2.45;93.61
39823;BME280;25499;53.958;10.970;2022-12-07T11:09:03;100834.69;;;2.57;92.15
39823;BME280;25499;53.958;10.970;2022-12-07T11:11:36;100836.47;;;2.59;91.64
39823;BME280;25499;53.958;10.970;2022-12-07T11:14:44;100826.59;;;2.72;90.71
39823;BME280;25499;53.958;10.970;2022-12-07T11:34:36;100816.88;;;3.22;88.32
39823;BME280;25499;53.958;10.970;2022-12-07T11:37:10;100809.28;;;3.27;87.16
39823;BME280;25499;53.958;10.970;2022-12-07T11:39:47;100818.91;;;3.34;87.16
39823;BME280;25499;53.958;10.970;2022-12-07T11:42:21;100798.63;;;3.45;84.88
39823;BME280;25499;53.958;10.970;2022-12-07T11:44:49;100800.25;;;3.41;86.20
39823;BME280;25499;53.958;10.970;2022-12-07T11:55:49;100801.31;;;3.49;85.32
39823;BME280;25499;53.958;10.970;2022-12-07T12:08:43;100783.69;;;2.99;84.51
39823;BME280;25499;53.958;10.970;2022-12-07T12:14:27;100766.09;;;3.15;83.67
39823;BME280;25499;53.958;10.970;2022-12-07T12:19:35;100766.25;;;2.89;84.30
39823;BME280;25499;53.958;10.970;2022-12-07T12:22:16;100742.81;;;2.78;82.19
39823;BME280;25499;53.958;10.970;2022-12-07T12:24:43;100756.56;;;3.11;82.35
39823;BME280;25499;53.958;10.970;2022-12-07T12:27:25;100762.53;;;3.10;83.19
39823;BME280;25499;53.958;10.970;2022-12-07T12:29:57;100756.56;;;3.11;83.42
39823;BME280;25499;53.958;10.970;2022-12-07T12:32:40;100757.06;;;2.97;82.97
39823;BME280;25499;53.958;10.970;2022-12-07T12:35:26;100743.16;;;2.91;82.79
39823;BME280;25499;53.958;10.970;2022-12-07T12:37:53;100751.59;;;2.87;83.03
39823;BME280;25499;53.958;10.970;2022-12-07T12:42:49;100760.19;;;3.19;83.07
39823;BME280;25499;53.958;10.970;2022-12-07T12:45:28;100752.59;;;3.24;82.65
39823;BME280;25499;53.958;10.970;2022-12-07T12:47:58;100743.06;;;3.20;82.64
39823;BME280;25499;53.958;10.970;2022-12-07T12:50:28;100764.25;;;3.43;82.85
39823;BME280;25499;53.958;10.970;2022-12-07T13:00:42;100755.03;;;3.19;81.88
39823;BME280;25499;53.958;10.970;2022-12-07T13:03:23;100756.44;;;3.06;81.60
39823;BME280;25499;53.958;10.970;2022-12-07T13:06:17;100759.31;;;2.87;82.16
39823;BME280;25499;53.958;10.970;2022-12-07T13:08:43;100761.38;;;2.68;82.57
39823;BME280;25499;53.958;10.970;2022-12-07T13:11:18;100777.03;;;2.77;82.96
39823;BME280;25499;53.958;10.970;2022-12-07T13:13:45;100772.63;;;2.72;82.69
39823;BME280;25499;53.958;10.970;2022-12-07T13:18:38;100789.41;;;2.60;83.36
39823;BME280;25499;53.958;10.970;2022-12-07T13:23:54;100784.50;;;2.39;83.54
39823;BME280;25499;53.958;10.970;2022-12-07T13:31:36;100794.78;;;2.41;84.24
39823;BME280;25499;53.958;10.970;2022-12-07T13:34:05;100802.72;;;2.47;84.80
39823;BME280;25499;53.958;10.970;2022-12-07T13:36:51;100802.19;;;2.30;85.28
39823;BME280;25499;53.958;10.970;2022-12-07T13:39:20;100815.28;;;2.38;85.88
39823;BME280;25499;53.958;10.970;2022-12-07T13:42:23;100801.97;;;2.24;86.11
39823;BME280;25499;53.958;10.970;2022-12-07T13:44:49;100802.50;;;2.14;85.57
39823;BME280;25499;53.958;10.970;2022-12-07T13:47:39;100795.13;;;2.23;85.87
39823;BME280;25499;53.958;10.970;2022-12-07T13:50:25;100804.38;;;2.45;85.95
39823;BME280;25499;53.958;10.970;2022-12-07T13:52:55;100795.16;;;2.24;85.55
39823;BME280;25499;53.958;10.970;2022-12-07T13:55:21;100797.69;;;2.23;86.01
39823;BME280;25499;53.958;10.970;2022-12-07T13:57:51;100788.28;;;1.96;86.19
39823;BME280;25499;53.958;10.970;2022-12-07T14:00:23;100809.19;;;2.07;86.61
39823;BME280;25499;53.958;10.970;2022-12-07T14:03:03;100804.75;;;2.03;86.76
39823;BME280;25499;53.958;10.970;2022-12-07T14:05:30;100821.50;;;2.17;87.69
39823;BME280;25499;53.958;10.970;2022-12-07T14:07:58;100824.44;;;2.02;87.88
39823;BME280;25499;53.958;10.970;2022-12-07T14:10:30;100817.91;;;1.86;87.75
39823;BME280;25499;53.958;10.970;2022-12-07T14:12:57;100822.50;;;1.95;88.06
39823;BME280;25499;53.958;10.970;2022-12-07T14:15:33;100832.78;;;1.97;88.29
39823;BME280;25499;53.958;10.970;2022-12-07T14:18:01;100814.94;;;1.74;88.33
39823;BME280;25499;53.958;10.970;2022-12-07T14:22:58;100817.91;;;1.86;88.10
39823;BME280;25499;53.958;10.970;2022-12-07T14:25:25;100814.22;;;1.78;88.04
39823;BME280;25499;53.958;10.970;2022-12-07T14:27:54;100807.97;;;1.70;87.70
39823;BME280;25499;53.958;10.970;2022-12-07T14:30:22;100823.53;;;1.76;87.92
39823;BME280;25499;53.958;10.970;2022-12-07T14:32:54;100817.81;;;1.83;87.89
39823;BME280;25499;53.958;10.970;2022-12-07T14:35:20;100819.09;;;1.71;88.33
39823;BME280;25499;53.958;10.970;2022-12-07T14:37:48;100808.66;;;1.66;88.22
39823;BME280;25499;53.958;10.970;2022-12-07T14:40:17;100836.09;;;1.67;89.34
39823;BME280;25499;53.958;10.970;2022-12-07T14:42:43;100836.03;;;1.65;89.67
39823;BME280;25499;53.958;10.970;2022-12-07T14:45:17;100833.63;;;1.46;89.96
39823;BME280;25499;53.958;10.970;2022-12-07T14:47:44;100832.94;;;1.50;90.12
39823;BME280;25499;53.958;10.970;2022-12-07T14:50:15;100833.50;;;1.67;90.16
39823;BME280;25499;53.958;10.970;2022-12-07T14:52:42;100829.63;;;1.54;89.58
39823;BME280;25499;53.958;10.970;2022-12-07T14:55:27;100813.06;;;1.44;88.28
39823;BME280;25499;53.958;10.970;2022-12-07T14:57:52;100809.84;;;1.50;88.54
39823;BME280;25499;53.958;10.970;2022-12-07T15:00:19;100829.97;;;1.63;89.31
39823;BME280;25499;53.958;10.970;2022-12-07T15:02:45;100822.66;;;1.50;88.47
39823;BME280;25499;53.958;10.970;2022-12-07T15:05:11;100834.31;;;1.66;88.69
39823;BME280;25499;53.958;10.970;2022-12-07T15:07:36;100817.97;;;1.38;88.51
39823;BME280;25499;53.958;10.970;2022-12-07T15:10:02;100834.72;;;1.53;89.06
39823;BME280;25499;53.958;10.970;2022-12-07T15:12:28;100840.59;;;1.74;89.68
39823;BME280;25499;53.958;10.970;2022-12-07T15:14:53;100838.13;;;1.52;89.61
39823;BME280;25499;53.958;10.970;2022-12-07T15:17:18;100836.47;;;1.54;89.44
39823;BME280;25499;53.958;10.970;2022-12-07T15:19:44;100831.06;;;1.70;89.06
39823;BME280;25499;53.958;10.970;2022-12-07T15:22:09;100812.97;;;1.41;88.26
39823;BME280;25499;53.958;10.970;2022-12-07T15:24:36;100817.25;;;1.42;88.35
39823;BME280;25499;53.958;10.970;2022-12-07T15:27:01;100817.97;;;1.38;88.69
39823;BME280;25499;53.958;10.970;2022-12-07T15:29:27;100826.09;;;1.51;89.10
39823;BME280;25499;53.958;10.970;2022-12-07T15:31:52;100828.38;;;1.67;89.15
39823;BME280;25499;53.958;10.970;2022-12-07T15:34:18;100822.66;;;1.50;89.19
39823;BME280;25499;53.958;10.970;2022-12-07T15:36:43;100823.47;;;1.49;89.07
39823;BME280;25499;53.958;10.970;2022-12-07T15:39:09;100821.34;;;1.37;88.88
39823;BME280;25499;53.958;10.970;2022-12-07T15:41:35;100820.66;;;1.41;88.59
39823;BME280;25499;53.958;10.970;2022-12-07T15:44:00;100818.72;;;1.36;88.09
39823;BME280;25499;53.958;10.970;2022-12-07T15:46:44;100816.94;;;1.33;88.02
39823;BME280;25499;53.958;10.970;2022-12-07T15:49:12;100814.03;;;1.24;87.72
39823;BME280;25499;53.958;10.970;2022-12-07T15:51:38;100804.06;;;1.07;87.80
39823;BME280;25499;53.958;10.970;2022-12-07T15:54:03;100816.47;;;1.19;88.13
39823;BME280;25499;53.958;10.970;2022-12-07T15:56:28;100820.81;;;1.22;88.39
39823;BME280;25499;53.958;10.970;2022-12-07T15:58:55;100818.97;;;1.18;88.61
39823;BME280;25499;53.958;10.970;2022-12-07T16:01:21;100818.63;;;1.08;88.69
39823;BME280;25499;53.958;10.970;2022-12-07T16:03:46;100805.75;;;1.07;88.61
39823;BME280;25499;53.958;10.970;2022-12-07T16:06:16;100811.97;;;1.14;88.21
39823;BME280;25499;53.958;10.970;2022-12-07T16:08:45;100804.44;;;0.94;88.38
39823;BME280;25499;53.958;10.970;2022-12-07T16:11:11;100813.28;;;1.02;89.01
39823;BME280;25499;53.958;10.970;2022-12-07T16:13:37;100806.09;;;0.92;89.25
39823;BME280;25499;53.958;10.970;2022-12-07T16:16:07;100808.59;;;0.90;89.43
39823;BME280;25499;53.958;10.970;2022-12-07T16:18:33;100807.00;;;0.94;89.34
39823;BME280;25499;53.958;10.970;2022-12-07T16:20:58;100804.44;;;0.94;88.93
39823;BME280;25499;53.958;10.970;2022-12-07T16:23:24;100806.44;;;0.79;88.72
39823;BME280;25499;53.958;10.970;2022-12-07T16:25:49;100815.28;;;0.87;88.82
39823;BME280;25499;53.958;10.970;2022-12-07T16:28:14;100812.00;;;0.91;89.24
39823;BME280;25499;53.958;10.970;2022-12-07T16:30:40;100812.50;;;0.81;89.51
39823;BME280;25499;53.958;10.970;2022-12-07T16:33:05;100810.53;;;0.73;89.65
39823;BME280;25499;53.958;10.970;2022-12-07T16:35:31;100811.38;;;0.74;89.35
39823;BME280;25499;53.958;10.970;2022-12-07T16:37:56;100815.16;;;0.84;89.39
39823;BME280;25499;53.958;10.970;2022-12-07T16:40:21;100806.91;;;0.68;89.11
39823;BME280;25499;53.958;10.970;2022-12-07T16:42:46;100803.50;;;0.69;89.40
39823;BME280;25499;53.958;10.970;2022-12-07T16:45:12;100812.84;;;0.67;89.28
39823;BME280;25499;53.958;10.970;2022-12-07T16:47:38;100808.88;;;0.76;89.15
39823;BME280;25499;53.958;10.970;2022-12-07T16:50:04;100807.66;;;0.66;89.14
39823;BME280;25499;53.958;10.970;2022-12-07T16:52:30;100807.50;;;0.61;89.69
39823;BME280;25499;53.958;10.970;2022-12-07T16:54:55;100809.63;;;0.50;89.40
39823;BME280;25499;53.958;10.970;2022-12-07T16:57:20;100818.81;;;0.45;89.58
39823;BME280;25499;53.958;10.970;2022-12-07T16:59:45;100816.66;;;0.33;89.69
39823;BME280;25499;53.958;10.970;2022-12-07T17:02:11;100817.66;;;0.37;89.81
39823;BME280;25499;53.958;10.970;2022-12-07T17:04:37;100824.53;;;0.38;89.96
39823;BME280;25499;53.958;10.970;2022-12-07T17:07:05;100810.41;;;0.27;89.57
39823;BME280;25499;53.958;10.970;2022-12-07T17:09:30;100824.22;;;0.30;90.01
39823;BME280;25499;53.958;10.970;2022-12-07T17:11:55;100821.72;;;0.32;89.96
39823;BME280;25499;53.958;10.970;2022-12-07T17:14:20;100819.00;;;0.27;90.20
39823;BME280;25499;53.958;10.970;2022-12-07T17:17:04;100820.09;;;0.34;90.11
39823;BME280;25499;53.958;10.970;2022-12-07T17:19:30;100811.88;;;0.20;90.28
39823;BME280;25499;53.958;10.970;2022-12-07T17:21:55;100811.88;;;0.20;90.32
39823;BME280;25499;53.958;10.970;2022-12-07T17:24:20;100810.00;;;0.16;90.44
39823;BME280;25499;53.958;10.970;2022-12-07T17:26:46;100812.91;;;0.25;90.38
39823;BME280;25499;53.958;10.970;2022-12-07T17:29:13;100814.88;;;0.10;90.65
39823;BME280;25499;53.958;10.970;2022-12-07T17:31:38;100807.00;;;0.26;90.70
39823;BME280;25499;53.958;10.970;2022-12-07T17:34:09;100807.78;;;0.25;90.38
39823;BME280;25499;53.958;10.970;2022-12-07T17:36:35;100812.13;;;0.26;90.44
39823;BME280;25499;53.958;10.970;2022-12-07T17:39:01;100810.81;;;0.15;90.69
39823;BME280;25499;53.958;10.970;2022-12-07T17:41:28;100816.84;;;0.17;90.96
39823;BME280;25499;53.958;10.970;2022-12-07T17:44:17;100817.13;;;0.02;91.24
39823;BME280;25499;53.958;10.970;2022-12-07T17:46:44;100812.63;;;-0.04;91.75
39823;BME280;25499;53.958;10.970;2022-12-07T17:49:09;100818.50;;;0.15;91.71
39823;BME280;25499;53.958;10.970;2022-12-07T17:51:34;100814.25;;;0.15;91.58
39823;BME280;25499;53.958;10.970;2022-12-07T17:54:19;100811.25;;;0.05;91.58
39823;BME280;25499;53.958;10.970;2022-12-07T17:56:44;100811.50;;;0.11;91.69
39823;BME280;25499;53.958;10.970;2022-12-07T17:59:10;100801.72;;;0.01;91.45
39823;BME280;25499;53.958;10.970;2022-12-07T18:01:36;100812.56;;;0.16;91.84
39823;BME280;25499;53.958;10.970;2022-12-07T18:04:03;100806.91;;;0.02;92.13
39823;BME280;25499;53.958;10.970;2022-12-07T18:06:28;100795.47;;;-0.06;91.88
39823;BME280;25499;53.958;10.970;2022-12-07T18:08:53;100805.13;;;0.01;92.28
39823;BME280;25499;53.958;10.970;2022-12-07T18:11:18;100798.28;;;0.00;91.83
39823;BME280;25499;53.958;10.970;2022-12-07T18:13:44;100800.09;;;0.03;92.19
39823;BME280;25499;53.958;10.970;2022-12-07T18:16:15;100803.63;;;0.06;92.00
39823;BME280;25499;53.958;10.970;2022-12-07T18:18:44;100802.66;;;0.03;92.19
39823;BME280;25499;53.958;10.970;2022-12-07T18:21:17;100805.34;;;0.06;91.74
39823;BME280;25499;53.958;10.970;2022-12-07T18:23:44;100794.41;;;0.10;91.96
39823;BME280;25499;53.958;10.970;2022-12-07T18:26:11;100796.03;;;-0.13;92.26
39823;BME280;25499;53.958;10.970;2022-12-07T18:28:37;100800.03;;;0.01;92.22
39823;BME280;25499;53.958;10.970;2022-12-07T18:31:03;100795.03;;;0.04;92.20
39823;BME280;25499;53.958;10.970;2022-12-07T18:33:28;100789.84;;;0.03;92.14
39823;BME280;25499;53.958;10.970;2022-12-07T18:35:53;100787.41;;;0.06;92.05
39823;BME280;25499;53.958;10.970;2022-12-07T18:38:18;100795.91;;;0.05;92.12
39823;BME280;25499;53.958;10.970;2022-12-07T18:40:44;100788.09;;;0.02;92.03
39823;BME280;25499;53.958;10.970;2022-12-07T18:43:10;100791.91;;;-0.10;91.71
39823;BME280;25499;53.958;10.970;2022-12-07T18:45:37;100789.16;;;-0.14;91.53
39823;BME280;25499;53.958;10.970;2022-12-07T18:48:03;100793.28;;;-0.18;91.65
39823;BME280;25499;53.958;10.970;2022-12-07T18:50:29;100785.88;;;-0.12;91.25
39823;BME280;25499;53.958;10.970;2022-12-07T18:52:59;100791.91;;;-0.10;91.21
39823;BME280;25499;53.958;10.970;2022-12-07T18:55:26;100785.88;;;-0.12;90.92
39823;BME280;25499;53.958;10.970;2022-12-07T18:57:52;100783.06;;;-0.18;91.11
39823;BME280;25499;53.958;10.970;2022-12-07T19:00:18;100779.78;;;-0.14;90.89
39823;BME280;25499;53.958;10.970;2022-12-07T19:02:44;100780.06;;;-0.29;90.88
39823;BME280;25499;53.958;10.970;2022-12-07T19:05:09;100774.75;;;-0.12;90.54
39823;BME280;25499;53.958;10.970;2022-12-07T19:07:34;100779.78;;;-0.14;90.57
39823;BME280;25499;53.958;10.970;2022-12-07T19:10:00;100782.41;;;-0.12;90.47
39823;BME280;25499;53.958;10.970;2022-12-07T19:12:25;100774.59;;;-0.17;90.38
39823;BME280;25499;53.958;10.970;2022-12-07T19:14:50;100777.50;;;-0.29;90.61
39823;BME280;25499;53.958;10.970;2022-12-07T19:17:16;100777.91;;;-0.39;90.56
39823;BME280;25499;53.958;10.970;2022-12-07T19:19:43;100782.66;;;-0.27;90.62
39823;BME280;25499;53.958;10.970;2022-12-07T19:22:10;100782.28;;;-0.36;90.92
39823;BME280;25499;53.958;10.970;2022-12-07T19:24:36;100777.59;;;-0.47;91.15
39823;BME280;25499;53.958;10.970;2022-12-07T19:27:03;100778.16;;;-0.54;91.44
39823;BME280;25499;53.958;10.970;2022-12-07T19:29:29;100784.72;;;-0.61;91.80
39823;BME280;25499;53.958;10.970;2022-12-07T19:31:56;100791.25;;;-0.46;92.28
39823;BME280;25499;53.958;10.970;2022-12-07T19:34:21;100788.53;;;-0.51;92.43
39823;BME280;25499;53.958;10.970;2022-12-07T19:36:46;100791.09;;;-0.51;92.35
39823;BME280;25499;53.958;10.970;2022-12-07T19:39:12;100788.84;;;-0.43;92.07
39823;BME280;25499;53.958;10.970;2022-12-07T19:41:37;100794.53;;;-0.29;92.29
39823;BME280;25499;53.958;10.970;2022-12-07T19:46:39;100778.31;;;-0.51;92.51
39823;BME280;25499;53.958;10.970;2022-12-07T19:49:05;100781.66;;;-0.52;92.65
39823;BME280;25499;53.958;10.970;2022-12-07T19:51:31;100776.91;;;-0.43;92.77
39823;BME280;25499;53.958;10.970;2022-12-07T19:53:58;100773.06;;;-0.54;92.23
39823;BME280;25499;53.958;10.970;2022-12-07T19:56:25;100768.44;;;-0.63;92.32
39823;BME280;25499;53.958;10.970;2022-12-07T19:58:51;100772.72;;;-0.62;92.25
39823;BME280;25499;53.958;10.970;2022-12-07T20:01:16;100766.88;;;-0.59;92.28
39823;BME280;25499;53.958;10.970;2022-12-07T20:03:42;100756.00;;;-0.74;92.08
39823;BME280;25499;53.958;10.970;2022-12-07T20:06:08;100759.56;;;-0.71;92.01
39823;BME280;25499;53.958;10.970;2022-12-07T20:08:34;100761.13;;;-0.74;92.22
39823;BME280;25499;53.958;10.970;2022-12-07T20:10:59;100762.25;;;-0.87;92.52
39823;BME280;25499;53.958;10.970;2022-12-07T20:13:44;100760.16;;;-0.77;92.77
39823;BME280;25499;53.958;10.970;2022-12-07T20:16:10;100749.28;;;-0.92;92.64
39823;BME280;25499;53.958;10.970;2022-12-07T20:18:35;100753.38;;;-0.96;92.86
39823;BME280;25499;53.958;10.970;2022-12-07T20:21:00;100748.47;;;-1.10;93.29
39823;BME280;25499;53.958;10.970;2022-12-07T20:23:27;100752.25;;;-1.02;93.52
39823;BME280;25499;53.958;10.970;2022-12-07T20:25:53;100750.22;;;-1.09;93.77
39823;BME280;25499;53.958;10.970;2022-12-07T20:28:19;100748.75;;;-1.04;94.24
39823;BME280;25499;53.958;10.970;2022-12-07T20:30:49;100747.13;;;-1.02;94.61
39823;BME280;25499;53.958;10.970;2022-12-07T20:33:14;100759.03;;;-1.03;95.04
39823;BME280;25499;53.958;10.970;2022-12-07T20:35:40;100744.72;;;-0.99;95.34
39823;BME280;25499;53.958;10.970;2022-12-07T20:38:05;100743.78;;;-1.01;95.30
39823;BME280;25499;53.958;10.970;2022-12-07T20:40:30;100743.56;;;-1.06;95.76
39823;BME280;25499;53.958;10.970;2022-12-07T20:42:56;100746.25;;;-1.03;95.88
39823;BME280;25499;53.958;10.970;2022-12-07T20:45:21;100744.56;;;-1.02;95.97
39823;BME280;25499;53.958;10.970;2022-12-07T20:47:47;100744.50;;;-0.84;95.81
39823;BME280;25499;53.958;10.970;2022-12-07T20:50:12;100752.03;;;-0.47;95.40
39823;BME280;25499;53.958;10.970;2022-12-07T20:52:37;100745.78;;;-0.32;93.86
39823;BME280;25499;53.958;10.970;2022-12-07T20:55:03;100727.25;;;-0.48;92.89
39823;BME280;25499;53.958;10.970;2022-12-07T20:57:28;100729.88;;;-0.46;92.89
39823;BME280;25499;53.958;10.970;2022-12-07T20:59:53;100730.88;;;-0.43;92.93
39823;BME280;25499;53.958;10.970;2022-12-07T21:02:18;100735.06;;;-0.45;92.79
39823;BME280;25499;53.958;10.970;2022-12-07T21:04:44;100728.16;;;-0.47;92.77
39823;BME280;25499;53.958;10.970;2022-12-07T21:07:09;100728.75;;;-0.53;92.98
39823;BME280;25499;53.958;10.970;2022-12-07T21:09:35;100735.56;;;-0.53;93.28
39823;BME280;25499;53.958;10.970;2022-12-07T21:12:00;100741.25;;;-0.40;93.54
39823;BME280;25499;53.958;10.970;2022-12-07T21:14:25;100742.88;;;-0.42;93.45
39823;BME280;25499;53.958;10.970;2022-12-07T21:16:50;100736.53;;;-0.30;92.95
